This is the latest recevied weather packets stored in our database for station/object CALDNA-WX. If no packets are shown the sender has not sent any weather packets the latest 1 day(s).
| Time | Temp. | Humidity | Pressure | Rain* | Wind** | Luminosity | Snow |
|---|---|---|---|---|---|---|---|
| 1778079654 | 8.89° C | 48% | 985.6 hPa | 0 mm | - | - | - |
| 1778078727 | 8.89° C | 53% | 985.8 hPa | 0 mm | - | - | - |
| 1778075123 | 7.22° C | 61% | 984.8 hPa | 0 mm | - | - | - |
| 1778074243 | 6.67° C | 61% | 984.8 hPa | 0 mm | - | - | - |
| 1778071527 | 5.56° C | 71% | 983.7 hPa | 0 mm | - | - | - |
| 1778070644 | 5° C | 71% | 983.7 hPa | 0 mm | - | - | - |
| 1778067926 | 3.89° C | 75% | 983.1 hPa | 0 mm | - | - | - |
| 1778066124 | 2.78° C | 74% | 983 hPa | 0 mm | - | - | - |
| 1778063441 | 2.78° C | 70% | 983 hPa | 0 mm | - | - | - |
| 1778059840 | 3.33° C | 67% | 982.3 hPa | 0 mm | - | - | - |
| 1778057124 | 3.89° C | 69% | 981.8 hPa | 0 mm | - | - | - |
| 1778056238 | 3.89° C | 70% | 982.3 hPa | 0 mm | - | - | - |
| 1778055323 | 3.89° C | 70% | 982.3 hPa | 0 mm | - | - | - |
| 1778054453 | 3.89° C | 70% | 982.3 hPa | 0 mm | - | - | - |
| 1778053523 | 4.44° C | 69% | 982.2 hPa | 0 mm | - | - | - |
| 1778052642 | 4.44° C | 69% | 982.2 hPa | 0 mm | - | - | - |
| 1778051723 | 4.44° C | 69% | 982.2 hPa | 0 mm | - | - | - |
| 1778050846 | 5° C | 69% | 982.2 hPa | 0 mm | - | - | - |
| 1778047254 | 5.56° C | 69% | 982.6 hPa | 0 mm | - | - | - |
| 1778045439 | 6.11° C | 69% | 982.4 hPa | 0 mm | - | - | - |
| 1778043654 | 6.11° C | 69% | 982.4 hPa | 0 mm | - | - | - |
| 1778042724 | 6.67° C | 65% | 983.2 hPa | 0 mm | - | - | - |
| 1778041839 | 6.67° C | 67% | 982.7 hPa | 0 mm | - | - | - |
| 1778040923 | 6.67° C | 67% | 982.8 hPa | 0 mm | - | - | - |
| 1778039121 | 6.67° C | 64% | 982.4 hPa | 0 mm | - | - | - |
* Rain latest hour (hover to see other rain measurements)
** Current wind speed in m/s (hover to see current wind gust speed)